Kurtz, Indiana
Current Conditions -  °F | °C
As of 4:53 AM on Thursday 23 Oct 2014 (Local Time) from KBMG Reporting Station
Haze Haze  
Wind Chill: 36°   Ceiling: Unl
Heat Index: 36°   Visibility: 5mi
Dew Point: 35°   Wind: 0mph
Humidity: 97%   Direction: NA
Pressure: 30.25"   Gusts: NA
Location:  38.96°N, 86.2°W
Report Text: KBMG 230853Z AUTO 00000KT 5SM BR CLR 02/02 A3025 RMK AO2 SLP245 T00220017 57005
Loading
Personal Weather Stations






























Interactive Weather Map
Tropical Storm Tracking
New forecast layout! Learn more

10-Day Weather Forecast

Advertisements
Track Severe Weather on mobile